Time;durP1;ratioP1;P1;durP2;ratioP2;P2;SDS_P1;SDS_P2;PMS_P1;PMS_P2;Temp;Humidity;BMP_temperature;BMP_pressure;BME280_temperature;BME280_humidity;BME280_pressure;Samples;Min_cycle;Max_cycle;Signal;HPM_P1;HPM_P2
2022/04/22 00:01:55;;;;;;;19.03;13.90;;;;;;;5.38;100.00;95472.72;5032546;28;20440;-74
2022/04/22 00:04:22;;;;;;;17.50;14.13;;;;;;;5.51;100.00;95485.63;5031917;28;20550;-75
2022/04/22 00:06:48;;;;;;;19.60;16.40;;;;;;;5.36;100.00;95464.41;5024471;28;20457;-75
2022/04/22 00:09:15;;;;;;;18.73;15.23;;;;;;;5.32;100.00;95465.03;5022178;28;20562;-75
2022/04/22 00:11:42;;;;;;;20.40;15.13;;;;;;;5.23;100.00;95455.66;5035349;28;20527;-75
2022/04/22 00:14:08;;;;;;;18.70;16.53;;;;;;;5.43;100.00;95465.47;5040659;28;20862;-76
2022/04/22 00:16:35;;;;;;;19.93;15.80;;;;;;;5.45;100.00;95462.53;5046833;28;20521;-75
2022/04/22 00:19:02;;;;;;;18.27;15.03;;;;;;;5.53;100.00;95461.72;5036080;28;21000;-75
2022/04/22 00:21:29;;;;;;;18.57;15.67;;;;;;;5.31;100.00;95429.41;5032917;28;20532;-75
2022/04/22 00:23:55;;;;;;;18.83;15.17;;;;;;;5.21;100.00;95424.56;5032434;28;20467;-74
2022/04/22 00:26:22;;;;;;;18.63;15.93;;;;;;;5.44;100.00;95445.25;5030616;28;20453;-75
2022/04/22 00:28:49;;;;;;;15.70;13.87;;;;;;;5.49;100.00;95440.63;5031984;28;20479;-75
2022/04/22 00:31:16;;;;;;;19.70;14.43;;;;;;;5.26;100.00;95420.97;5036425;28;20475;-75
2022/04/22 00:33:42;;;;;;;19.37;15.70;;;;;;;5.24;100.00;95434.41;5041800;28;20489;-75
2022/04/22 00:36:10;;;;;;;17.67;14.97;;;;;;;5.23;100.00;95427.63;5023181;28;20452;-74
2022/04/22 00:38:37;;;;;;;20.17;16.07;;;;;;;5.32;100.00;95430.19;5026690;28;20453;-74
2022/04/22 00:41:05;;;;;;;17.37;14.13;;;;;;;5.29;100.00;95413.25;5026991;28;20471;-75
2022/04/22 00:43:45;;;;;;;18.07;15.33;;;;;;;5.31;100.00;95426.03;5024269;28;20437;-75
2022/04/22 00:46:17;;;;;;;18.03;14.73;;;;;;;5.20;100.00;95411.72;5042545;28;20544;-74
2022/04/22 00:48:47;;;;;;;20.30;15.53;;;;;;;5.24;100.00;95391.69;5043588;28;20569;-76
2022/04/22 00:51:16;;;;;;;18.70;14.53;;;;;;;5.03;100.00;95373.28;5033937;28;20814;-73
2022/04/22 00:53:46;;;;;;;20.20;13.27;;;;;;;5.34;100.00;95415.72;5030912;28;20987;-73
2022/04/22 00:56:13;;;;;;;17.47;14.93;;;;;;;5.08;100.00;95365.25;5030918;28;20477;-74
2022/04/22 00:58:42;;;;;;;18.90;14.70;;;;;;;5.39;100.00;95414.75;5032265;28;20529;-74
2022/04/22 01:01:11;;;;;;;19.00;15.33;;;;;;;5.39;100.00;95409.53;5026570;28;20431;-73
2022/04/22 01:03:39;;;;;;;15.13;13.30;;;;;;;5.34;100.00;95415.72;5020644;28;20494;-74
2022/04/22 01:11:39;;;;;;;17.17;14.90;;;;;;;5.18;100.00;95388.47;5031091;28;20444;-74
2022/04/22 01:14:07;;;;;;;17.93;14.30;;;;;;;5.21;100.00;95380.00;5042060;28;20945;-74
2022/04/22 01:16:34;;;;;;;18.43;14.80;;;;;;;5.25;100.00;95383.53;5050077;28;20465;-74
2022/04/22 01:19:01;;;;;;;15.60;13.00;;;;;;;5.25;100.00;95382.75;5051462;28;20447;-74
2022/04/22 01:21:27;;;;;;;17.90;14.07;;;;;;;5.18;100.00;95374.59;5050179;28;20426;-73
2022/04/22 01:23:54;;;;;;;18.27;15.03;;;;;;;5.29;100.00;95375.78;5042589;28;20545;-73
2022/04/22 01:26:21;;;;;;;15.13;13.50;;;;;;;5.37;100.00;95379.47;5033389;28;20527;-74
2022/04/22 01:28:48;;;;;;;16.03;13.10;;;;;;;5.26;100.00;95374.56;5031382;28;21025;-74
2022/04/22 01:31:14;;;;;;;21.60;17.20;;;;;;;5.18;100.00;95377.22;5030121;28;20443;-74
2022/04/22 01:33:41;;;;;;;17.50;14.53;;;;;;;5.29;100.00;95368.69;5031695;28;20989;-74
2022/04/22 01:36:08;;;;;;;16.83;13.63;;;;;;;4.94;100.00;95339.28;5030054;28;20526;-74
2022/04/22 01:38:35;;;;;;;19.67;15.30;;;;;;;4.97;100.00;95340.50;5029658;28;20837;-74
2022/04/22 01:41:02;;;;;;;15.20;13.60;;;;;;;5.16;100.00;95358.44;5041327;28;20525;-74
2022/04/22 01:43:29;;;;;;;17.97;14.60;;;;;;;5.12;100.00;95354.91;5031942;28;20868;-73
2022/04/22 01:45:55;;;;;;;16.53;13.27;;;;;;;5.04;100.00;95327.66;5041442;28;20423;-74
2022/04/22 01:48:22;;;;;;;18.37;13.53;;;;;;;5.02;100.00;95332.44;5020433;28;20471;-74
2022/04/22 01:50:49;;;;;;;18.67;14.90;;;;;;;5.20;100.00;95354.09;5038551;28;20956;-74
2022/04/22 01:53:16;;;;;;;18.50;15.50;;;;;;;5.03;100.00;95315.66;5029984;28;20555;-73
2022/04/22 01:55:42;;;;;;;17.43;14.00;;;;;;;4.98;100.00;95337.56;5033559;28;20427;-74
2022/04/22 01:58:09;;;;;;;17.30;14.33;;;;;;;5.12;100.00;95350.44;5046986;28;20535;-73
2022/04/22 02:00:36;;;;;;;17.87;13.53;;;;;;;4.90;100.00;95321.88;5034930;28;20970;-74
2022/04/22 02:03:03;;;;;;;16.80;13.60;;;;;;;4.95;100.00;95319.84;5034778;28;20425;-74
2022/04/22 02:05:29;;;;;;;21.40;14.80;;;;;;;4.94;100.00;95317.53;5035696;28;20463;-74
2022/04/22 02:07:56;;;;;;;15.97;12.80;;;;;;;5.05;100.00;95332.59;5040315;28;20463;-74
2022/04/22 02:10:23;;;;;;;17.10;14.50;;;;;;;5.08;100.00;95340.91;5053493;28;20554;-74
2022/04/22 02:12:49;;;;;;;17.30;13.03;;;;;;;4.87;100.00;95319.88;5034002;28;20448;-74
2022/04/22 02:15:18;;;;;;;20.87;14.50;;;;;;;4.98;100.00;95328.94;5034800;28;20427;-74
2022/04/22 02:17:45;;;;;;;14.63;12.67;;;;;;;4.95;100.00;95314.63;5054315;28;20831;-74
2022/04/22 02:20:12;;;;;;;17.07;13.80;;;;;;;4.92;100.00;95317.84;5041098;28;20964;-74
2022/04/22 02:22:39;;;;;;;20.63;16.20;;;;;;;4.76;100.00;95285.41;5021767;28;20427;-74
2022/04/22 02:25:07;;;;;;;16.10;13.97;;;;;;;5.13;100.00;95319.78;5035696;28;20947;-73
2022/04/22 02:30:19;;;;;;;16.73;14.97;;;;;;;4.95;100.00;95298.91;5038005;28;21189;-74
2022/04/22 02:32:46;;;;;;;18.47;14.30;;;;;;;5.11;100.00;95309.63;5017967;28;20445;-74
2022/04/22 02:35:13;;;;;;;18.23;14.33;;;;;;;5.16;100.00;95321.75;5037020;28;20816;-73
2022/04/22 02:37:40;;;;;;;19.33;13.97;;;;;;;5.22;100.00;95317.88;5042495;28;20947;-74
2022/04/22 02:40:08;;;;;;;17.97;14.50;;;;;;;5.20;100.00;95315.56;5032427;28;20497;-73
2022/04/22 02:45:28;;;;;;;19.87;14.80;;;;;;;4.96;100.00;95295.22;5035152;28;20427;-74
2022/04/22 02:47:56;;;;;;;18.13;13.93;;;;;;;4.99;100.00;95312.13;5051731;28;20458;-73
2022/04/22 02:50:23;;;;;;;20.13;14.77;;;;;;;5.02;100.00;95308.88;5042800;28;20486;-74
2022/04/22 02:52:50;;;;;;;15.87;14.27;;;;;;;5.05;100.00;95303.00;5020198;28;20462;-74
2022/04/22 02:55:17;;;;;;;19.83;14.93;;;;;;;4.85;100.00;95259.22;5043422;28;20439;-73
2022/04/22 02:57:44;;;;;;;18.57;13.30;;;;;;;5.10;100.00;95296.84;5056356;28;21032;-73
2022/04/22 03:00:13;;;;;;;17.70;14.40;;;;;;;5.17;100.00;95300.47;5024959;28;20452;-73
2022/04/22 03:02:42;;;;;;;16.43;14.23;;;;;;;4.98;100.00;95268.69;5035151;28;20535;-73
2022/04/22 03:05:12;;;;;;;18.03;15.13;;;;;;;5.13;100.00;95277.88;5043588;28;20771;-73
2022/04/22 03:07:39;;;;;;;18.50;14.37;;;;;;;5.14;100.00;95274.91;5044749;28;20446;-73
2022/04/22 03:10:06;;;;;;;20.10;15.90;;;;;;;5.17;100.00;95284.00;5041879;28;20485;-73
2022/04/22 03:12:34;;;;;;;15.70;13.67;;;;;;;4.74;100.00;95224.75;5035370;28;20497;-73
2022/04/22 03:15:03;;;;;;;19.13;14.40;;;;;;;4.85;100.00;95240.88;5016081;28;20951;-74
2022/04/22 03:17:30;;;;;;;19.13;13.67;;;;;;;4.82;100.00;95233.66;5018760;28;20440;-73
2022/04/22 03:19:57;;;;;;;21.50;15.60;;;;;;;4.69;100.00;95227.56;5033482;28;20445;-73
2022/04/22 03:22:23;;;;;;;21.87;17.30;;;;;;;4.78;100.00;95258.91;5036412;28;20469;-74
2022/04/22 03:24:50;;;;;;;25.53;16.87;;;;;;;4.89;100.00;95268.72;5024851;28;20854;-74
2022/04/22 03:27:17;;;;;;;15.30;12.60;;;;;;;4.96;100.00;95273.50;5032425;28;20489;-74
2022/04/22 03:29:43;;;;;;;23.10;15.60;;;;;;;4.87;100.00;95257.03;5033478;28;20471;-74
2022/04/22 03:32:14;;;;;;;19.10;15.63;;;;;;;4.98;100.00;95268.69;5031853;28;20444;-74
2022/04/22 03:34:41;;;;;;;20.33;16.20;;;;;;;4.82;100.00;95246.75;5033311;28;20438;-73
2022/04/22 03:37:07;;;;;;;21.23;15.83;;;;;;;4.85;100.00;95264.44;5045200;28;20497;-73
2022/04/22 03:39:34;;;;;;;21.80;15.50;;;;;;;4.87;100.00;95257.03;5031998;28;20482;-73
2022/04/22 03:42:01;;;;;;;23.03;15.60;;;;;;;4.75;100.00;95255.84;5016292;28;20523;-73
2022/04/22 03:44:27;;;;;;;19.43;16.33;;;;;;;4.58;100.00;95229.75;5027943;28;20513;-74
2022/04/22 03:46:54;;;;;;;20.17;15.83;;;;;;;4.74;100.00;95251.69;5036752;28;20440;-73
2022/04/22 03:49:21;;;;;;;20.53;15.37;;;;;;;4.55;100.00;95217.31;5048474;28;20499;-74
2022/04/22 03:51:47;;;;;;;20.77;15.30;;;;;;;4.83;100.00;95266.63;5032112;28;20446;-74
2022/04/22 03:54:18;;;;;;;18.27;16.33;;;;;;;4.47;100.00;95231.19;5033062;28;20435;-73
2022/04/22 03:59:30;;;;;;;20.17;15.47;;;;;;;4.71;100.00;95268.03;5037839;28;20491;-74
2022/04/22 04:01:57;;;;;;;17.13;14.17;;;;;;;4.66;100.00;95251.72;5043388;28;20432;-73
2022/04/22 04:04:24;;;;;;;19.53;16.80;;;;;;;4.53;100.00;95222.06;5032626;28;20420;-73
2022/04/22 04:06:50;;;;;;;19.37;15.10;;;;;;;4.45;100.00;95234.13;5031276;28;20939;-74
2022/04/22 04:17:38;;;;;;;18.90;14.47;;;;;;;4.70;100.00;95235.09;5051031;28;20875;-72
2022/04/22 04:25:36;;;;;;;21.40;16.70;;;;;;;4.66;100.00;95218.47;5034378;28;20444;-72
2022/04/22 04:28:04;;;;;;;21.80;17.67;;;;;;;4.61;100.00;95202.94;5031494;28;20482;-72
2022/04/22 04:30:30;;;;;;;20.33;15.80;;;;;;;4.73;100.00;95244.16;5032425;28;20473;-72
2022/04/22 04:32:57;;;;;;;21.40;16.00;;;;;;;4.79;100.00;95247.38;5032623;28;20432;-72
2022/04/22 04:35:24;;;;;;;24.97;17.20;;;;;;;4.78;100.00;95243.97;5032287;28;20425;-72
2022/04/22 04:37:50;;;;;;;21.93;17.37;;;;;;;4.27;100.00;95167.22;5014871;28;20513;-72
2022/04/22 04:40:17;;;;;;;21.40;15.57;;;;;;;4.63;100.00;95213.09;5047778;28;20554;-72
2022/04/22 04:42:44;;;;;;;23.60;17.33;;;;;;;4.85;100.00;95238.25;5033983;28;20436;-73
2022/04/22 04:45:11;;;;;;;19.33;15.07;;;;;;;4.96;100.00;95237.59;5036152;28;20454;-73
2022/04/22 04:47:41;;;;;;;23.40;17.47;;;;;;;5.01;100.00;95242.63;5040267;28;20928;-73
2022/04/22 04:50:09;;;;;;;21.43;15.80;;;;;;;4.95;100.00;95230.06;5048319;28;20514;-72
2022/04/22 04:52:37;;;;;;;23.20;17.80;;;;;;;5.07;100.00;95237.19;5032018;28;20439;-73
2022/04/22 04:55:08;;;;;;;23.33;17.80;;;;;;;5.10;100.00;95250.44;5053073;28;20439;-72
2022/04/22 04:57:35;;;;;;;21.73;17.20;;;;;;;5.12;100.00;95247.50;5039536;28;20536;-73
2022/04/22 05:00:05;;;;;;;19.60;15.90;;;;;;;5.06;100.00;95220.72;5016128;28;20505;-72
2022/04/22 05:02:36;;;;;;;25.83;17.93;;;;;;;5.24;100.00;95237.88;5049557;28;20451;-72
2022/04/22 05:05:05;;;;;;;21.63;18.23;;;;;;;5.16;100.00;95236.06;5016941;28;20447;-72
2022/04/22 05:07:32;;;;;;;21.43;17.57;;;;;;;5.18;100.00;95233.13;5038685;28;20444;-72
2022/04/22 05:09:59;;;;;;;21.77;17.80;;;;;;;5.22;100.00;95239.28;5058165;28;20497;-72
2022/04/22 05:12:31;;;;;;;21.23;17.53;;;;;;;5.12;100.00;95210.84;5063225;28;20438;-72
2022/04/22 05:14:58;;;;;;;20.23;16.23;;;;;;;5.27;100.00;95229.38;5054951;28;20434;-73
2022/04/22 05:17:24;;;;;;;19.07;16.23;;;;;;;5.16;100.00;95209.88;5034722;28;20435;-73
2022/04/22 05:19:52;;;;;;;19.30;16.90;;;;;;;5.29;100.00;95219.34;5034416;28;20565;-73
2022/04/22 05:22:18;;;;;;;23.07;17.33;;;;;;;5.38;100.00;95221.13;5036317;28;20511;-72
2022/04/22 05:24:45;;;;;;;24.10;18.50;;;;;;;5.37;100.00;95214.38;5030806;28;20432;-72
2022/04/22 05:27:11;;;;;;;20.90;16.37;;;;;;;5.53;100.00;95233.66;5017472;28;20432;-73
2022/04/22 05:32:38;;;;;;;19.17;15.77;;;;;;;5.49;100.00;95217.06;5055490;28;20947;-72
2022/04/22 05:35:06;;;;;;;23.13;17.33;;;;;;;5.63;100.00;95234.06;5053410;28;20525;-73
2022/04/22 05:37:47;;;;;;;23.23;19.27;;;;;;;5.61;100.00;95231.00;5043645;28;20515;-73
2022/04/22 05:40:16;;;;;;;24.33;17.40;;;;;;;5.60;100.00;95234.66;5032133;28;21045;-73
2022/04/22 05:42:48;;;;;;;20.80;16.07;;;;;;;5.64;100.00;95230.34;5035889;28;20822;-73
2022/04/22 05:45:16;;;;;;;20.97;18.60;;;;;;;5.70;100.00;95236.13;5034542;28;20431;-72
2022/04/22 05:47:43;;;;;;;25.40;19.30;;;;;;;5.73;100.00;95237.34;5039200;28;20460;-72
2022/04/22 05:50:12;;;;;;;21.73;17.87;;;;;;;5.81;100.00;95236.53;5039875;28;20491;-73
2022/04/22 05:52:39;;;;;;;24.87;18.80;;;;;;;5.89;100.00;95238.31;5054474;28;20443;-73
2022/04/22 05:55:08;;;;;;;23.77;17.47;;;;;;;6.04;100.00;95236.97;5054457;28;20479;-73
2022/04/22 05:57:36;;;;;;;20.17;17.60;;;;;;;5.71;100.00;95194.94;5054204;28;20439;-73
2022/04/22 06:00:07;;;;;;;21.20;18.27;;;;;;;6.07;100.00;95239.69;5053738;28;20454;-73
2022/04/22 06:02:43;;;;;;;27.03;17.50;;;;;;;6.13;100.00;95248.88;5054253;28;20445;-73
2022/04/22 06:05:12;;;;;;;23.33;19.30;;;;;;;6.14;100.00;95231.28;5054260;28;20922;-73
2022/04/22 06:07:40;;;;;;;22.10;18.10;;;;;;;6.26;100.00;95246.31;5053814;28;20953;-73
2022/04/22 06:12:54;;;;;;;20.10;17.67;;;;;;;6.46;100.00;95229.72;5053141;28;20451;-72
2022/04/22 06:15:21;;;;;;;23.30;19.67;;;;;;;6.39;100.00;95230.25;5043624;28;20531;-72
2022/04/22 06:17:48;;;;;;;21.97;18.33;;;;;;;6.17;100.00;95172.94;5041411;28;21014;-72
2022/04/22 06:20:15;;;;;;;20.83;16.40;;;;;;;6.43;100.00;95225.91;5054016;28;20490;-73
2022/04/22 06:22:42;;;;;;;18.33;16.17;;;;;;;6.20;100.00;95188.78;5037810;28;20474;-72
2022/04/22 06:25:10;;;;;;;27.97;20.70;;;;;;;6.35;100.00;95197.88;5053816;28;20531;-72
2022/04/22 06:27:39;;;;;;;28.43;18.50;;;;;;;6.28;100.00;95174.03;5050522;28;20523;-73
2022/04/22 06:30:10;;;;;;;20.50;17.70;;;;;;;6.97;100.00;95230.94;5034575;28;21063;-73
2022/04/22 06:32:37;;;;;;;25.60;18.70;;;;;;;7.17;100.00;95213.50;5055668;28;20457;-72
2022/04/22 06:35:06;;;;;;;24.20;19.20;;;;;;;6.95;100.00;95196.38;5035716;28;20882;-73
2022/04/22 06:37:35;;;;;;;21.33;17.87;;;;;;;7.13;100.00;95217.91;5036714;28;20476;-73
2022/04/22 06:45:48;;;;;;;19.93;17.20;;;;;;;7.11;100.00;95220.88;5033485;28;20446;-73
2022/04/22 06:48:21;;;;;;;26.57;18.50;;;;;;;7.23;100.00;95214.06;5032098;28;20787;-73
2022/04/22 06:51:08;;;;;;;22.00;17.00;;;;;;;7.10;100.00;95193.06;5034422;28;20455;-73
2022/04/22 06:53:36;;;;;;;18.00;15.13;;;;;;;7.42;100.00;95214.22;5034779;28;20518;-72
2022/04/22 06:56:06;;;;;;;22.40;16.53;;;;;;;7.37;100.00;95167.16;5038345;28;20459;-73
2022/04/22 06:58:37;;;;;;;20.57;17.10;;;;;;;8.18;100.00;95208.00;5055876;28;20490;-73
2022/04/22 07:01:25;;;;;;;23.07;18.60;;;;;;;7.93;100.00;95172.38;5055143;28;20458;-73
2022/04/22 07:04:10;;;;;;;19.90;15.20;;;;;;;7.96;100.00;95203.28;5054152;28;20545;-73
2022/04/22 07:06:37;;;;;;;17.10;15.30;;;;;;;7.96;100.00;95211.19;5054228;28;20435;-73
2022/04/22 07:09:04;;;;;;;20.70;16.93;;;;;;;7.80;100.00;95179.56;5038165;28;20598;-73
2022/04/22 07:11:34;;;;;;;20.37;16.60;;;;;;;8.02;100.00;95204.59;5008872;28;20440;-73
2022/04/22 07:14:02;;;;;;;23.33;14.57;;;;;;;8.27;100.00;95215.72;5008447;28;20447;-72
2022/04/22 07:16:28;;;;;;;20.90;15.23;;;;;;;8.18;100.00;95213.28;5039099;28;20985;-73
2022/04/22 07:18:57;;;;;;;18.20;15.67;;;;;;;8.34;100.00;95215.16;5046821;28;20471;-73
2022/04/22 07:21:25;;;;;;;18.03;16.13;;;;;;;8.38;100.00;95218.66;5052529;28;20494;-73
2022/04/22 07:23:53;;;;;;;17.37;15.60;;;;;;;8.16;100.00;95202.31;5028814;28;20441;-72
2022/04/22 07:26:21;;;;;;;18.30;16.17;;;;;;;8.38;100.00;95202.84;5048595;28;20460;-73
2022/04/22 07:28:49;;;;;;;16.80;15.00;;;;;;;8.32;100.00;95191.03;5051166;28;20500;-72
2022/04/22 07:31:18;;;;;;;18.13;16.23;;;;;;;8.39;100.00;95193.84;5041744;28;20441;-73
2022/04/22 07:33:45;;;;;;;19.13;17.03;;;;;;;8.42;100.00;95212.41;5052183;28;20532;-72
2022/04/22 07:36:12;;;;;;;18.50;15.70;;;;;;;8.52;100.00;95221.63;5071615;28;20421;-72
2022/04/22 07:38:39;;;;;;;18.27;16.37;;;;;;;8.24;100.00;95192.72;5017629;28;21029;-72
2022/04/22 07:41:07;;;;;;;16.33;13.30;;;;;;;8.55;100.00;95210.44;5012993;28;20498;-72
2022/04/22 07:49:07;;;;;;;17.17;15.07;;;;;;;9.06;100.00;95205.94;5031806;28;20515;-73
2022/04/22 07:51:34;;;;;;;19.20;16.17;;;;;;;9.14;100.00;95186.56;5032157;28;20456;-73
2022/04/22 07:54:01;;;;;;;17.90;13.87;;;;;;;9.21;100.00;95190.44;5015216;28;20465;-72
2022/04/22 07:56:27;;;;;;;16.90;15.20;;;;;;;9.63;100.00;95207.16;5031774;28;20437;-73
2022/04/22 07:58:56;;;;;;;16.27;13.20;;;;;;;9.47;100.00;95199.28;5033213;28;20573;-72
2022/04/22 08:01:23;;;;;;;19.00;14.00;;;;;;;9.53;100.00;95178.69;5019785;28;20535;-73
2022/04/22 08:03:50;;;;;;;17.23;15.10;;;;;;;9.58;100.00;95178.38;5035103;28;20522;-73
2022/04/22 08:06:17;;;;;;;17.80;15.27;;;;;;;9.58;100.00;95164.44;5035225;28;20985;-73
2022/04/22 08:08:43;;;;;;;20.43;15.70;;;;;;;10.03;100.00;95204.16;5052747;28;20495;-73
2022/04/22 08:11:10;;;;;;;16.63;14.87;;;;;;;10.05;100.00;95177.38;5051925;28;20469;-73
2022/04/22 08:13:36;;;;;;;15.70;13.77;;;;;;;10.06;100.00;95198.16;5051800;28;20803;-73
2022/04/22 08:16:03;;;;;;;16.00;13.13;;;;;;;9.81;100.00;95167.91;5051087;28;20442;-73
2022/04/22 08:18:30;;;;;;;13.70;12.30;;;;;;;10.05;100.00;95185.31;5023557;28;20433;-72
2022/04/22 08:20:57;;;;;;;18.70;15.30;;;;;;;9.84;100.00;95192.81;5036096;28;20856;-73
2022/04/22 08:23:24;;;;;;;16.00;13.30;;;;;;;9.62;100.00;95191.66;5032853;28;20568;-73
2022/04/22 08:25:50;;;;;;;17.07;15.30;;;;;;;9.60;100.00;95188.59;5051273;28;20430;-73
2022/04/22 08:28:17;;;;;;;15.47;11.90;;;;;;;9.88;100.00;95170.69;5050753;28;20485;-73
2022/04/22 08:30:44;;;;;;;16.07;14.37;;;;;;;9.39;100.00;95134.31;5051053;28;20565;-73
2022/04/22 08:33:11;;;;;;;16.60;14.90;;;;;;;9.84;100.00;95177.00;5050543;28;20439;-73
2022/04/22 08:35:38;;;;;;;14.83;13.27;;;;;;;9.83;100.00;95186.03;5050431;28;20528;-73
2022/04/22 08:38:06;;;;;;;17.27;14.67;;;;;;;9.84;100.00;95164.56;5050225;28;20449;-73
2022/04/22 08:40:37;;;;;;;14.63;12.60;;;;;;;9.63;100.00;95150.97;5046939;28;20487;-73
2022/04/22 08:43:06;;;;;;;13.93;12.43;;;;;;;9.90;100.00;95181.66;5015521;28;20445;-73
2022/04/22 08:45:33;;;;;;;15.73;12.30;;;;;;;9.90;100.00;95155.25;5031111;28;20515;-74
2022/04/22 08:50:51;;;;;;;12.43;11.27;;;;;;;11.12;100.00;95182.50;5046224;28;20463;-74
2022/04/22 08:53:23;;;;;;;15.83;13.33;;;;;;;10.82;100.00;95160.53;5033939;28;20445;-74
2022/04/22 08:56:01;;;;;;;13.00;11.70;;;;;;;10.74;100.00;95159.66;5031447;28;20448;-73
2022/04/22 08:58:29;;;;;;;13.90;11.73;;;;;;;11.18;100.00;95165.19;5011524;28;20438;-73
2022/04/22 09:00:57;;;;;;;12.90;11.70;;;;;;;11.73;100.00;95156.75;5029925;28;20440;-73
2022/04/22 09:03:27;;;;;;;14.20;12.80;;;;;;;11.85;97.15;95145.94;5035013;28;20531;-73
2022/04/22 09:05:59;;;;;;;12.33;11.03;;;;;;;11.91;94.82;95157.00;5060839;28;20428;-73
2022/04/22 09:08:28;;;;;;;14.87;13.27;;;;;;;12.10;95.11;95146.19;5070447;28;20431;-74
2022/04/22 09:10:56;;;;;;;13.53;12.13;;;;;;;11.62;94.17;95154.00;5038681;28;20519;-74
2022/04/22 09:13:29;;;;;;;13.23;11.80;;;;;;;12.18;93.91;95145.16;5052556;28;21015;-74
2022/04/22 09:15:59;;;;;;;14.00;12.03;;;;;;;12.02;91.83;95136.66;5037042;28;20432;-74
2022/04/22 09:18:38;;;;;;;12.20;11.03;;;;;;;12.26;91.19;95130.81;5049104;28;21005;-74
2022/04/22 09:21:07;;;;;;;13.20;11.03;;;;;;;12.69;89.88;95145.19;5060930;28;20416;-74
2022/04/22 09:23:35;;;;;;;14.47;12.93;;;;;;;12.49;88.07;95141.22;5054019;28;20551;-74
2022/04/22 09:26:04;;;;;;;22.23;10.97;;;;;;;13.03;86.47;95153.72;5018905;28;20448;-74
2022/04/22 09:28:31;;;;;;;12.00;10.80;;;;;;;13.08;83.91;95135.91;5038069;28;20515;-74
2022/04/22 09:31:00;;;;;;;11.63;10.53;;;;;;;13.12;85.06;95150.75;5060721;28;20468;-74
2022/04/22 09:33:46;;;;;;;10.63;9.60;;;;;;;12.70;81.62;95144.06;5058286;28;20438;-74
2022/04/22 09:44:56;;;;;;;10.00;8.97;;;;;;;13.17;77.27;95121.19;5036793;28;20479;-72
2022/04/22 09:47:30;;;;;;;11.23;9.57;;;;;;;13.22;76.99;95098.88;5027840;28;20519;-73
2022/04/22 09:50:01;;;;;;;10.43;9.53;;;;;;;13.31;76.42;95131.16;5033914;28;20468;-73
2022/04/22 09:52:30;;;;;;;10.47;8.73;;;;;;;13.71;75.08;95142.69;5022428;28;20453;-73
2022/04/22 09:55:02;;;;;;;11.70;9.80;;;;;;;13.31;75.02;95125.84;5046223;28;20528;-73
2022/04/22 09:57:53;;;;;;;9.90;8.60;;;;;;;13.74;76.15;95126.75;5034420;28;20914;-74
2022/04/22 10:00:21;;;;;;;8.27;7.47;;;;;;;13.93;74.16;95106.31;5027569;28;20441;-74
2022/04/22 10:02:50;;;;;;;9.13;8.33;;;;;;;13.72;73.18;95123.69;5033741;28;20447;-74
2022/04/22 10:05:19;;;;;;;9.00;8.10;;;;;;;13.00;73.21;95087.38;5034823;28;20442;-74
2022/04/22 10:07:50;;;;;;;8.03;7.33;;;;;;;13.28;72.57;95111.41;5013655;28;20527;-74
2022/04/22 10:10:19;;;;;;;8.43;7.73;;;;;;;13.30;71.86;95085.25;5026239;28;20568;-74
2022/04/22 10:12:48;;;;;;;8.90;8.10;;;;;;;13.52;72.99;95103.94;5051884;28;20441;-74
2022/04/22 10:15:18;;;;;;;9.07;8.37;;;;;;;13.97;70.77;95113.13;5053863;28;20534;-74
2022/04/22 10:17:48;;;;;;;7.40;6.70;;;;;;;13.81;70.51;95112.72;5047189;28;20539;-74
2022/04/22 10:20:15;;;;;;;7.80;7.20;;;;;;;13.63;70.31;95072.09;5033579;28;20451;-74
2022/04/22 10:22:42;;;;;;;9.17;8.10;;;;;;;13.89;71.38;95103.66;5040943;28;20520;-74
2022/04/22 10:25:09;;;;;;;8.30;7.50;;;;;;;14.09;70.16;95080.88;5039830;28;20468;-74
2022/04/22 10:27:37;;;;;;;8.37;7.57;;;;;;;14.62;69.12;95109.38;5033452;28;20528;-74
2022/04/22 10:30:09;;;;;;;8.70;7.80;;;;;;;15.18;68.80;95117.63;5035983;28;20464;-74
2022/04/22 10:32:39;;;;;;;8.73;7.80;;;;;;;15.17;67.24;95124.88;5033273;28;20540;-74
2022/04/22 10:35:05;;;;;;;7.97;7.23;;;;;;;15.04;66.55;95108.56;5032890;28;20441;-74
2022/04/22 10:37:34;;;;;;;9.37;8.10;;;;;;;14.57;68.64;95106.38;5032998;28;20445;-74
2022/04/22 10:40:03;;;;;;;8.63;7.83;;;;;;;14.37;66.43;95082.03;5032738;28;20464;-72
2022/04/22 10:42:35;;;;;;;11.70;9.10;;;;;;;14.60;65.58;95108.25;5032992;28;20430;-72
2022/04/22 10:47:51;;;;;;;9.77;8.77;;;;;;;15.08;65.32;95097.88;5049212;28;20440;-72
2022/04/22 10:50:30;;;;;;;9.47;8.53;;;;;;;14.29;66.44;95110.53;5052083;28;20461;-72
2022/04/22 10:53:04;;;;;;;8.10;7.40;;;;;;;14.95;64.93;95116.16;5052328;28;20433;-72
2022/04/22 10:55:35;;;;;;;9.90;7.67;;;;;;;15.05;63.98;95117.28;5052096;28;20486;-72
2022/04/22 10:58:14;;;;;;;9.13;8.23;;;;;;;15.22;64.59;95110.41;5036479;28;20426;-72
2022/04/22 11:00:45;;;;;;;10.77;9.77;;;;;;;14.60;66.35;95089.63;5047393;28;21031;-72
2022/04/22 11:03:16;;;;;;;8.87;8.07;;;;;;;14.94;64.71;95119.22;5048444;28;20921;-74
2022/04/22 11:05:57;;;;;;;9.57;8.80;;;;;;;14.62;64.11;95109.38;5046995;28;20460;-72
2022/04/22 11:08:59;;;;;;;9.57;8.20;;;;;;;14.24;64.90;95115.44;5031906;28;20532;-72
2022/04/22 11:11:26;;;;;;;11.03;10.03;;;;;;;14.24;65.08;95115.44;5025648;28;20516;-72
2022/04/22 11:13:53;;;;;;;9.80;8.97;;;;;;;14.25;64.30;95116.97;5033587;28;20438;-72
2022/04/22 11:16:20;;;;;;;8.77;8.07;;;;;;;13.92;65.68;95113.50;5032277;28;20529;-72
2022/04/22 11:19:09;;;;;;;8.60;7.77;;;;;;;13.28;66.68;95113.31;5032252;28;20523;-72
2022/04/22 11:21:36;;;;;;;8.80;8.00;;;;;;;13.47;66.45;95113.00;5016011;28;20447;-72
2022/04/22 11:24:14;;;;;;;8.70;7.37;;;;;;;13.80;65.20;95096.03;5032059;28;20447;-72
2022/04/22 11:26:44;;;;;;;9.70;8.80;;;;;;;13.94;66.36;95081.25;5032770;28;20833;-72
2022/04/22 11:29:12;;;;;;;9.27;8.03;;;;;;;13.86;64.80;95096.41;5031486;28;20465;-72
2022/04/22 11:31:39;;;;;;;9.50;8.70;;;;;;;14.48;65.52;95090.78;5033462;28;20560;-72
2022/04/22 11:34:17;;;;;;;9.47;8.57;;;;;;;14.57;65.21;95087.75;5033397;28;20528;-72
2022/04/22 11:36:49;;;;;;;8.73;8.03;;;;;;;14.43;63.45;95101.78;5032050;28;20541;-73
2022/04/22 11:39:20;;;;;;;9.73;8.83;;;;;;;14.47;64.57;95123.84;5031429;28;20895;-72
2022/04/22 11:41:52;;;;;;;8.30;7.20;;;;;;;14.26;64.36;95118.47;5032834;28;20442;-72
2022/04/22 11:44:21;;;;;;;8.93;8.23;;;;;;;14.30;64.28;95120.00;5031949;28;20440;-72
2022/04/22 11:46:52;;;;;;;11.20;8.70;;;;;;;15.41;63.50;95117.94;5045193;28;20462;-73
2022/04/22 11:49:20;;;;;;;9.40;8.00;;;;;;;14.79;63.77;95097.97;5032165;28;20860;-72
2022/04/22 11:51:52;;;;;;;9.20;8.40;;;;;;;14.51;62.37;95124.59;5033013;28;20823;-72
2022/04/22 11:54:24;;;;;;;10.50;9.60;;;;;;;13.98;62.98;95112.00;5031287;28;20827;-72
2022/04/22 11:56:54;;;;;;;10.00;8.00;;;;;;;13.86;63.15;95115.00;5031283;28;20482;-72
2022/04/22 11:59:22;;;;;;;12.10;9.67;;;;;;;13.41;64.13;95125.13;5015248;28;20469;-72
2022/04/22 12:10:11;;;;;;;9.60;8.60;;;;;;;13.10;65.47;95120.41;5040711;28;21039;-72
2022/04/22 12:12:49;;;;;;;9.23;8.30;;;;;;;13.21;65.55;95127.28;5030941;28;20456;-72
2022/04/22 12:19:28;;;;;;;9.13;8.33;;;;;;;13.43;65.43;95106.16;4895812;22;20506;-73
2022/04/22 12:21:55;;;;;;;9.07;8.20;;;;;;;13.68;65.15;95127.50;5072265;28;20484;-73
2022/04/22 12:24:22;;;;;;;12.23;7.60;;;;;;;13.13;66.98;95120.41;5072216;28;20426;-73
2022/04/22 12:26:51;;;;;;;8.63;7.83;;;;;;;13.11;65.55;95122.69;5072466;28;20985;-73
2022/04/22 12:29:21;;;;;;;9.50;8.60;;;;;;;13.09;65.22;95140.88;5047666;28;20836;-73
2022/04/22 12:31:55;;;;;;;9.97;8.90;;;;;;;13.26;66.18;95128.84;5034605;28;20539;-73
2022/04/22 12:34:26;;;;;;;11.13;9.90;;;;;;;13.29;65.76;95126.22;5034077;28;20501;-73
2022/04/22 12:36:52;;;;;;;10.47;9.40;;;;;;;13.58;65.34;95132.38;5033952;28;20447;-73
2022/04/22 12:39:42;;;;;;;9.10;8.40;;;;;;;13.42;64.41;95137.25;5033834;28;20456;-73